Aviation Digital Data Service (ADDS)

Output produced by METARs form (0226 UTC 19 February 2019)
found at http://www.aviationweather.gov/metar/data/
 
GUCY 190000Z 00000KT 3000 BR NSC 27/26 Q1012 NOSIG
TAF GUCY 182300Z 1900/2006 36006KT 4000 HZ SCT110 
     BECMG 1902/1906 VRB02KT 3000 BR NSC 
     TEMPO 1910/1914 5000 HZ FEW015 SCT110